Terminal Aerodrome Forecast
Issued by NWS Upton, NY

Home | Current Version | Previous Version | Text Only | Print | Product List | Glossary On
Versions: 1 2 3 4 5 6 7 8 9 10 11 12 13 14 15 16 17 18 19 20 21
000
FTUS41 KOKX 272000 AAA
TAFISP
TAF AMD
KISP 272032Z 2721/2818 18008KT P6SM BKN250
     FM280300 22006KT P6SM BKN080 BKN250
     FM281200 24007KT P6SM SCT025 OVC050
     FM281500 26008KT P6SM -SHRA SCT025 OVC040=

USA.gov is the U.S. government's official web portal to all federal, state and local government web resources and services.